sensor_id;sensor_type;location;lat;lon;timestamp;P1;durP1;ratioP1;P2;durP2;ratioP2
16824;SDS011;8529;48.108;-1.706;2023-07-31T00:01:56;11.88;;;4.70;;
16824;SDS011;8529;48.108;-1.706;2023-07-31T00:04:24;13.85;;;5.25;;
16824;SDS011;8529;48.108;-1.706;2023-07-31T00:06:52;10.45;;;4.45;;
16824;SDS011;8529;48.108;-1.706;2023-07-31T00:09:19;11.02;;;4.70;;
16824;SDS011;8529;48.108;-1.706;2023-07-31T00:11:46;8.80;;;4.75;;
16824;SDS011;8529;48.108;-1.706;2023-07-31T00:14:13;17.05;;;5.15;;
16824;SDS011;8529;48.108;-1.706;2023-07-31T00:16:40;11.93;;;4.82;;
16824;SDS011;8529;48.108;-1.706;2023-07-31T00:19:08;12.77;;;5.32;;
16824;SDS011;8529;48.108;-1.706;2023-07-31T00:21:35;10.75;;;4.68;;
16824;SDS011;8529;48.108;-1.706;2023-07-31T00:24:04;12.20;;;4.97;;
16824;SDS011;8529;48.108;-1.706;2023-07-31T00:26:30;12.95;;;4.75;;
16824;SDS011;8529;48.108;-1.706;2023-07-31T00:28:57;12.45;;;5.47;;
16824;SDS011;8529;48.108;-1.706;2023-07-31T00:31:24;14.77;;;5.13;;
16824;SDS011;8529;48.108;-1.706;2023-07-31T00:33:51;14.95;;;5.63;;
16824;SDS011;8529;48.108;-1.706;2023-07-31T00:36:19;14.23;;;5.47;;
16824;SDS011;8529;48.108;-1.706;2023-07-31T00:38:45;15.65;;;5.18;;
16824;SDS011;8529;48.108;-1.706;2023-07-31T00:41:14;10.25;;;5.07;;
16824;SDS011;8529;48.108;-1.706;2023-07-31T00:43:41;11.77;;;5.13;;
16824;SDS011;8529;48.108;-1.706;2023-07-31T00:46:08;12.55;;;5.15;;
16824;SDS011;8529;48.108;-1.706;2023-07-31T00:48:35;11.82;;;4.95;;
16824;SDS011;8529;48.108;-1.706;2023-07-31T00:51:03;12.57;;;4.20;;
16824;SDS011;8529;48.108;-1.706;2023-07-31T00:53:30;19.13;;;5.93;;
16824;SDS011;8529;48.108;-1.706;2023-07-31T00:55:57;13.57;;;5.15;;
16824;SDS011;8529;48.108;-1.706;2023-07-31T00:58:26;14.65;;;4.78;;
16824;SDS011;8529;48.108;-1.706;2023-07-31T01:00:52;12.68;;;5.30;;
16824;SDS011;8529;48.108;-1.706;2023-07-31T01:03:19;17.38;;;5.03;;
16824;SDS011;8529;48.108;-1.706;2023-07-31T01:05:49;14.73;;;5.57;;
16824;SDS011;8529;48.108;-1.706;2023-07-31T01:08:28;9.02;;;4.32;;
16824;SDS011;8529;48.108;-1.706;2023-07-31T01:11:00;10.98;;;5.72;;
16824;SDS011;8529;48.108;-1.706;2023-07-31T01:13:32;12.82;;;5.57;;
16824;SDS011;8529;48.108;-1.706;2023-07-31T01:16:00;10.75;;;5.20;;
16824;SDS011;8529;48.108;-1.706;2023-07-31T01:18:27;11.30;;;5.35;;
16824;SDS011;8529;48.108;-1.706;2023-07-31T01:20:54;10.32;;;5.00;;
16824;SDS011;8529;48.108;-1.706;2023-07-31T01:23:32;15.23;;;5.13;;
16824;SDS011;8529;48.108;-1.706;2023-07-31T01:26:22;14.23;;;5.10;;
16824;SDS011;8529;48.108;-1.706;2023-07-31T01:28:55;13.02;;;5.00;;
16824;SDS011;8529;48.108;-1.706;2023-07-31T01:31:34;11.32;;;4.85;;
16824;SDS011;8529;48.108;-1.706;2023-07-31T01:34:04;12.02;;;4.85;;
16824;SDS011;8529;48.108;-1.706;2023-07-31T01:36:33;13.60;;;5.25;;
16824;SDS011;8529;48.108;-1.706;2023-07-31T01:39:00;14.95;;;5.25;;
16824;SDS011;8529;48.108;-1.706;2023-07-31T01:41:28;10.23;;;4.80;;
16824;SDS011;8529;48.108;-1.706;2023-07-31T01:43:55;12.15;;;5.03;;
16824;SDS011;8529;48.108;-1.706;2023-07-31T01:46:22;10.18;;;4.93;;
16824;SDS011;8529;48.108;-1.706;2023-07-31T01:48:49;11.90;;;4.88;;
16824;SDS011;8529;48.108;-1.706;2023-07-31T01:51:16;10.65;;;4.95;;
16824;SDS011;8529;48.108;-1.706;2023-07-31T01:53:43;9.25;;;4.50;;
16824;SDS011;8529;48.108;-1.706;2023-07-31T01:56:10;8.48;;;4.47;;
16824;SDS011;8529;48.108;-1.706;2023-07-31T01:58:38;10.05;;;4.80;;
16824;SDS011;8529;48.108;-1.706;2023-07-31T02:01:06;11.88;;;5.53;;
16824;SDS011;8529;48.108;-1.706;2023-07-31T02:03:32;10.35;;;4.72;;
16824;SDS011;8529;48.108;-1.706;2023-07-31T02:06:00;11.80;;;5.05;;
16824;SDS011;8529;48.108;-1.706;2023-07-31T02:08:27;10.57;;;4.82;;
16824;SDS011;8529;48.108;-1.706;2023-07-31T02:10:54;9.35;;;4.40;;
16824;SDS011;8529;48.108;-1.706;2023-07-31T02:13:20;12.88;;;4.95;;
16824;SDS011;8529;48.108;-1.706;2023-07-31T02:15:49;13.18;;;5.75;;
16824;SDS011;8529;48.108;-1.706;2023-07-31T02:18:16;8.18;;;4.50;;
16824;SDS011;8529;48.108;-1.706;2023-07-31T02:20:48;14.15;;;5.00;;
16824;SDS011;8529;48.108;-1.706;2023-07-31T02:23:16;12.27;;;4.68;;
16824;SDS011;8529;48.108;-1.706;2023-07-31T02:25:43;12.20;;;4.93;;
16824;SDS011;8529;48.108;-1.706;2023-07-31T02:28:10;10.50;;;4.95;;
16824;SDS011;8529;48.108;-1.706;2023-07-31T02:30:37;10.35;;;4.70;;
16824;SDS011;8529;48.108;-1.706;2023-07-31T02:33:06;11.25;;;4.82;;
16824;SDS011;8529;48.108;-1.706;2023-07-31T02:35:33;9.20;;;4.38;;
16824;SDS011;8529;48.108;-1.706;2023-07-31T02:38:00;10.88;;;5.05;;
16824;SDS011;8529;48.108;-1.706;2023-07-31T02:40:27;11.60;;;5.40;;
16824;SDS011;8529;48.108;-1.706;2023-07-31T02:42:53;10.25;;;4.72;;
16824;SDS011;8529;48.108;-1.706;2023-07-31T02:45:20;14.80;;;5.68;;
16824;SDS011;8529;48.108;-1.706;2023-07-31T02:47:47;12.48;;;5.05;;
16824;SDS011;8529;48.108;-1.706;2023-07-31T02:50:15;9.45;;;4.32;;
16824;SDS011;8529;48.108;-1.706;2023-07-31T02:52:42;15.18;;;4.88;;
16824;SDS011;8529;48.108;-1.706;2023-07-31T02:55:09;8.60;;;4.32;;
16824;SDS011;8529;48.108;-1.706;2023-07-31T02:57:36;10.82;;;4.15;;
16824;SDS011;8529;48.108;-1.706;2023-07-31T03:00:03;10.45;;;4.95;;
16824;SDS011;8529;48.108;-1.706;2023-07-31T03:02:32;12.05;;;4.78;;
16824;SDS011;8529;48.108;-1.706;2023-07-31T03:04:58;11.77;;;4.75;;
16824;SDS011;8529;48.108;-1.706;2023-07-31T03:07:27;13.23;;;4.32;;
16824;SDS011;8529;48.108;-1.706;2023-07-31T03:09:55;10.65;;;5.00;;
16824;SDS011;8529;48.108;-1.706;2023-07-31T03:12:22;9.57;;;4.82;;
16824;SDS011;8529;48.108;-1.706;2023-07-31T03:14:49;10.73;;;4.28;;
16824;SDS011;8529;48.108;-1.706;2023-07-31T03:17:15;10.60;;;4.05;;
16824;SDS011;8529;48.108;-1.706;2023-07-31T03:19:42;9.98;;;4.90;;
16824;SDS011;8529;48.108;-1.706;2023-07-31T03:22:09;8.05;;;4.40;;
16824;SDS011;8529;48.108;-1.706;2023-07-31T03:24:37;9.93;;;3.75;;
16824;SDS011;8529;48.108;-1.706;2023-07-31T03:27:05;12.80;;;4.32;;
16824;SDS011;8529;48.108;-1.706;2023-07-31T03:29:32;17.65;;;6.03;;
16824;SDS011;8529;48.108;-1.706;2023-07-31T03:31:59;12.90;;;4.57;;
16824;SDS011;8529;48.108;-1.706;2023-07-31T03:34:26;8.75;;;4.30;;
16824;SDS011;8529;48.108;-1.706;2023-07-31T03:36:53;11.48;;;4.82;;
16824;SDS011;8529;48.108;-1.706;2023-07-31T03:39:20;14.07;;;5.07;;
16824;SDS011;8529;48.108;-1.706;2023-07-31T03:41:48;8.40;;;4.43;;
16824;SDS011;8529;48.108;-1.706;2023-07-31T03:44:15;9.70;;;4.00;;
16824;SDS011;8529;48.108;-1.706;2023-07-31T03:46:42;10.75;;;4.25;;
16824;SDS011;8529;48.108;-1.706;2023-07-31T03:49:09;13.25;;;4.97;;
16824;SDS011;8529;48.108;-1.706;2023-07-31T03:51:36;10.90;;;4.80;;
16824;SDS011;8529;48.108;-1.706;2023-07-31T03:54:03;11.13;;;4.18;;
16824;SDS011;8529;48.108;-1.706;2023-07-31T03:56:29;13.32;;;4.65;;
16824;SDS011;8529;48.108;-1.706;2023-07-31T03:58:58;15.35;;;5.43;;
16824;SDS011;8529;48.108;-1.706;2023-07-31T04:01:25;11.00;;;4.50;;
16824;SDS011;8529;48.108;-1.706;2023-07-31T04:03:52;11.70;;;4.75;;
16824;SDS011;8529;48.108;-1.706;2023-07-31T04:06:19;13.10;;;5.10;;
16824;SDS011;8529;48.108;-1.706;2023-07-31T04:08:47;10.82;;;4.88;;
16824;SDS011;8529;48.108;-1.706;2023-07-31T04:11:14;8.93;;;3.97;;
16824;SDS011;8529;48.108;-1.706;2023-07-31T04:13:41;9.93;;;4.70;;
16824;SDS011;8529;48.108;-1.706;2023-07-31T04:16:09;9.70;;;5.22;;
16824;SDS011;8529;48.108;-1.706;2023-07-31T04:18:37;9.18;;;4.28;;
16824;SDS011;8529;48.108;-1.706;2023-07-31T04:21:04;9.25;;;4.03;;
16824;SDS011;8529;48.108;-1.706;2023-07-31T04:23:31;13.77;;;4.05;;
16824;SDS011;8529;48.108;-1.706;2023-07-31T04:25:58;12.45;;;4.43;;
16824;SDS011;8529;48.108;-1.706;2023-07-31T04:28:25;12.98;;;5.03;;
16824;SDS011;8529;48.108;-1.706;2023-07-31T04:30:52;9.38;;;4.40;;
16824;SDS011;8529;48.108;-1.706;2023-07-31T04:33:20;12.48;;;4.45;;
16824;SDS011;8529;48.108;-1.706;2023-07-31T04:35:50;13.15;;;4.90;;
16824;SDS011;8529;48.108;-1.706;2023-07-31T04:38:18;10.45;;;4.50;;
16824;SDS011;8529;48.108;-1.706;2023-07-31T04:40:45;10.10;;;4.38;;
16824;SDS011;8529;48.108;-1.706;2023-07-31T04:43:12;8.68;;;4.28;;
16824;SDS011;8529;48.108;-1.706;2023-07-31T04:45:39;11.95;;;4.88;;
16824;SDS011;8529;48.108;-1.706;2023-07-31T04:48:08;11.10;;;5.03;;
16824;SDS011;8529;48.108;-1.706;2023-07-31T04:50:36;15.02;;;4.93;;
16824;SDS011;8529;48.108;-1.706;2023-07-31T04:53:03;11.75;;;4.32;;
16824;SDS011;8529;48.108;-1.706;2023-07-31T04:55:30;10.13;;;4.90;;
16824;SDS011;8529;48.108;-1.706;2023-07-31T04:57:57;8.18;;;3.95;;
16824;SDS011;8529;48.108;-1.706;2023-07-31T05:00:24;8.77;;;4.40;;
16824;SDS011;8529;48.108;-1.706;2023-07-31T05:02:51;9.45;;;4.70;;
16824;SDS011;8529;48.108;-1.706;2023-07-31T05:05:18;15.32;;;4.97;;
16824;SDS011;8529;48.108;-1.706;2023-07-31T05:07:46;9.05;;;4.75;;
16824;SDS011;8529;48.108;-1.706;2023-07-31T05:10:13;10.07;;;4.72;;
16824;SDS011;8529;48.108;-1.706;2023-07-31T05:12:40;7.80;;;4.43;;
16824;SDS011;8529;48.108;-1.706;2023-07-31T05:15:08;11.02;;;4.18;;
16824;SDS011;8529;48.108;-1.706;2023-07-31T05:17:35;10.10;;;4.03;;
16824;SDS011;8529;48.108;-1.706;2023-07-31T05:20:02;9.48;;;4.32;;
16824;SDS011;8529;48.108;-1.706;2023-07-31T05:22:29;11.18;;;4.63;;
16824;SDS011;8529;48.108;-1.706;2023-07-31T05:24:58;11.38;;;4.68;;
16824;SDS011;8529;48.108;-1.706;2023-07-31T05:27:25;9.93;;;4.57;;
16824;SDS011;8529;48.108;-1.706;2023-07-31T05:29:52;9.82;;;4.47;;
16824;SDS011;8529;48.108;-1.706;2023-07-31T05:32:19;10.02;;;4.75;;
16824;SDS011;8529;48.108;-1.706;2023-07-31T05:34:45;9.77;;;4.32;;
16824;SDS011;8529;48.108;-1.706;2023-07-31T05:37:13;10.70;;;4.82;;
16824;SDS011;8529;48.108;-1.706;2023-07-31T05:39:40;8.93;;;4.32;;
16824;SDS011;8529;48.108;-1.706;2023-07-31T05:42:08;12.13;;;4.90;;
16824;SDS011;8529;48.108;-1.706;2023-07-31T05:44:35;9.82;;;4.30;;
16824;SDS011;8529;48.108;-1.706;2023-07-31T05:47:02;10.20;;;4.05;;
16824;SDS011;8529;48.108;-1.706;2023-07-31T05:49:29;9.48;;;4.90;;
16824;SDS011;8529;48.108;-1.706;2023-07-31T05:51:56;14.45;;;3.92;;
16824;SDS011;8529;48.108;-1.706;2023-07-31T05:54:23;8.95;;;4.20;;
16824;SDS011;8529;48.108;-1.706;2023-07-31T05:56:50;14.15;;;5.03;;
16824;SDS011;8529;48.108;-1.706;2023-07-31T05:59:18;8.73;;;4.28;;
16824;SDS011;8529;48.108;-1.706;2023-07-31T06:01:45;8.20;;;4.05;;
16824;SDS011;8529;48.108;-1.706;2023-07-31T06:04:12;8.27;;;3.75;;
16824;SDS011;8529;48.108;-1.706;2023-07-31T06:06:39;10.65;;;4.47;;
16824;SDS011;8529;48.108;-1.706;2023-07-31T06:09:06;10.43;;;4.10;;
16824;SDS011;8529;48.108;-1.706;2023-07-31T06:11:33;8.70;;;3.50;;
16824;SDS011;8529;48.108;-1.706;2023-07-31T06:14:00;8.07;;;3.80;;
16824;SDS011;8529;48.108;-1.706;2023-07-31T06:16:28;6.57;;;3.50;;
16824;SDS011;8529;48.108;-1.706;2023-07-31T06:18:55;8.45;;;3.78;;
16824;SDS011;8529;48.108;-1.706;2023-07-31T06:21:22;8.95;;;3.65;;
16824;SDS011;8529;48.108;-1.706;2023-07-31T06:23:49;10.70;;;4.03;;
16824;SDS011;8529;48.108;-1.706;2023-07-31T06:26:16;9.80;;;3.50;;
16824;SDS011;8529;48.108;-1.706;2023-07-31T06:28:43;7.57;;;4.20;;
16824;SDS011;8529;48.108;-1.706;2023-07-31T06:31:09;9.65;;;3.70;;
16824;SDS011;8529;48.108;-1.706;2023-07-31T06:33:38;5.57;;;3.35;;
16824;SDS011;8529;48.108;-1.706;2023-07-31T06:36:05;8.57;;;3.58;;
16824;SDS011;8529;48.108;-1.706;2023-07-31T06:38:32;7.00;;;3.60;;
16824;SDS011;8529;48.108;-1.706;2023-07-31T06:41:00;6.85;;;3.40;;
16824;SDS011;8529;48.108;-1.706;2023-07-31T06:43:27;8.35;;;4.10;;
16824;SDS011;8529;48.108;-1.706;2023-07-31T06:45:54;6.18;;;3.20;;
16824;SDS011;8529;48.108;-1.706;2023-07-31T06:48:21;8.68;;;3.30;;
16824;SDS011;8529;48.108;-1.706;2023-07-31T06:50:49;5.55;;;3.30;;
16824;SDS011;8529;48.108;-1.706;2023-07-31T06:53:16;11.45;;;3.63;;
16824;SDS011;8529;48.108;-1.706;2023-07-31T06:55:43;5.53;;;3.25;;
16824;SDS011;8529;48.108;-1.706;2023-07-31T06:58:11;8.73;;;3.30;;
16824;SDS011;8529;48.108;-1.706;2023-07-31T07:00:38;9.48;;;3.63;;
16824;SDS011;8529;48.108;-1.706;2023-07-31T07:03:05;6.15;;;3.38;;
16824;SDS011;8529;48.108;-1.706;2023-07-31T07:05:32;8.90;;;3.85;;
16824;SDS011;8529;48.108;-1.706;2023-07-31T07:08:01;6.75;;;3.40;;
16824;SDS011;8529;48.108;-1.706;2023-07-31T07:10:28;6.63;;;3.05;;
16824;SDS011;8529;48.108;-1.706;2023-07-31T07:12:55;7.45;;;3.35;;
16824;SDS011;8529;48.108;-1.706;2023-07-31T07:15:22;6.38;;;3.10;;
16824;SDS011;8529;48.108;-1.706;2023-07-31T07:17:49;6.68;;;3.33;;
16824;SDS011;8529;48.108;-1.706;2023-07-31T07:20:17;7.93;;;3.08;;
16824;SDS011;8529;48.108;-1.706;2023-07-31T07:22:45;10.77;;;3.70;;
16824;SDS011;8529;48.108;-1.706;2023-07-31T07:25:13;8.43;;;3.47;;
16824;SDS011;8529;48.108;-1.706;2023-07-31T07:27:40;8.52;;;3.50;;
16824;SDS011;8529;48.108;-1.706;2023-07-31T07:30:07;6.03;;;3.38;;
16824;SDS011;8529;48.108;-1.706;2023-07-31T07:32:34;8.20;;;3.00;;
16824;SDS011;8529;48.108;-1.706;2023-07-31T07:35:01;6.82;;;3.25;;
16824;SDS011;8529;48.108;-1.706;2023-07-31T07:37:28;7.25;;;3.63;;
16824;SDS011;8529;48.108;-1.706;2023-07-31T07:39:55;8.48;;;3.22;;
16824;SDS011;8529;48.108;-1.706;2023-07-31T07:42:24;7.28;;;3.42;;
16824;SDS011;8529;48.108;-1.706;2023-07-31T07:44:50;12.23;;;2.97;;
16824;SDS011;8529;48.108;-1.706;2023-07-31T07:47:17;6.90;;;3.03;;
16824;SDS011;8529;48.108;-1.706;2023-07-31T07:49:44;8.10;;;3.50;;
16824;SDS011;8529;48.108;-1.706;2023-07-31T07:52:11;8.55;;;3.10;;
16824;SDS011;8529;48.108;-1.706;2023-07-31T07:54:38;7.45;;;3.67;;
16824;SDS011;8529;48.108;-1.706;2023-07-31T07:57:05;9.30;;;3.22;;
16824;SDS011;8529;48.108;-1.706;2023-07-31T07:59:33;5.30;;;3.05;;
16824;SDS011;8529;48.108;-1.706;2023-07-31T08:02:00;4.03;;;2.55;;
16824;SDS011;8529;48.108;-1.706;2023-07-31T08:04:27;5.50;;;2.95;;
16824;SDS011;8529;48.108;-1.706;2023-07-31T08:06:54;10.43;;;2.97;;
16824;SDS011;8529;48.108;-1.706;2023-07-31T08:09:21;6.97;;;3.22;;
16824;SDS011;8529;48.108;-1.706;2023-07-31T08:11:48;6.10;;;2.65;;
16824;SDS011;8529;48.108;-1.706;2023-07-31T08:14:15;5.43;;;2.88;;
16824;SDS011;8529;48.108;-1.706;2023-07-31T08:16:43;8.15;;;2.90;;
16824;SDS011;8529;48.108;-1.706;2023-07-31T08:19:10;7.28;;;3.28;;
16824;SDS011;8529;48.108;-1.706;2023-07-31T08:21:37;5.63;;;2.67;;
16824;SDS011;8529;48.108;-1.706;2023-07-31T08:24:04;6.93;;;2.75;;
16824;SDS011;8529;48.108;-1.706;2023-07-31T08:26:32;4.88;;;2.72;;
16824;SDS011;8529;48.108;-1.706;2023-07-31T08:29:00;4.80;;;2.63;;
16824;SDS011;8529;48.108;-1.706;2023-07-31T08:31:26;5.28;;;2.47;;
16824;SDS011;8529;48.108;-1.706;2023-07-31T08:33:55;7.35;;;2.97;;
16824;SDS011;8529;48.108;-1.706;2023-07-31T08:36:22;5.72;;;2.75;;
16824;SDS011;8529;48.108;-1.706;2023-07-31T08:38:49;4.53;;;2.40;;
16824;SDS011;8529;48.108;-1.706;2023-07-31T08:41:16;5.38;;;2.75;;
16824;SDS011;8529;48.108;-1.706;2023-07-31T08:43:44;5.40;;;2.13;;
16824;SDS011;8529;48.108;-1.706;2023-07-31T08:46:12;5.18;;;2.60;;
16824;SDS011;8529;48.108;-1.706;2023-07-31T08:48:40;4.70;;;2.30;;
16824;SDS011;8529;48.108;-1.706;2023-07-31T08:51:09;6.35;;;2.20;;
16824;SDS011;8529;48.108;-1.706;2023-07-31T08:53:36;4.35;;;2.63;;
16824;SDS011;8529;48.108;-1.706;2023-07-31T08:56:03;4.82;;;2.08;;
16824;SDS011;8529;48.108;-1.706;2023-07-31T08:58:32;4.35;;;2.10;;
16824;SDS011;8529;48.108;-1.706;2023-07-31T09:01:00;5.90;;;3.10;;
16824;SDS011;8529;48.108;-1.706;2023-07-31T09:03:27;4.78;;;2.65;;
16824;SDS011;8529;48.108;-1.706;2023-07-31T09:05:55;4.55;;;2.63;;
16824;SDS011;8529;48.108;-1.706;2023-07-31T09:08:26;3.42;;;2.35;;
16824;SDS011;8529;48.108;-1.706;2023-07-31T09:10:58;6.43;;;2.80;;
16824;SDS011;8529;48.108;-1.706;2023-07-31T09:13:26;5.90;;;2.72;;
16824;SDS011;8529;48.108;-1.706;2023-07-31T09:15:54;7.97;;;2.83;;
16824;SDS011;8529;48.108;-1.706;2023-07-31T09:18:20;3.90;;;2.22;;
16824;SDS011;8529;48.108;-1.706;2023-07-31T09:20:59;4.72;;;2.38;;
16824;SDS011;8529;48.108;-1.706;2023-07-31T09:23:29;4.35;;;2.20;;
16824;SDS011;8529;48.108;-1.706;2023-07-31T09:26:06;4.78;;;2.92;;
16824;SDS011;8529;48.108;-1.706;2023-07-31T09:28:34;5.53;;;2.88;;
16824;SDS011;8529;48.108;-1.706;2023-07-31T09:31:01;5.57;;;2.38;;
16824;SDS011;8529;48.108;-1.706;2023-07-31T09:33:28;3.33;;;2.53;;
16824;SDS011;8529;48.108;-1.706;2023-07-31T09:35:56;4.75;;;2.33;;
16824;SDS011;8529;48.108;-1.706;2023-07-31T09:38:26;4.15;;;3.00;;
16824;SDS011;8529;48.108;-1.706;2023-07-31T09:40:54;6.78;;;2.92;;
16824;SDS011;8529;48.108;-1.706;2023-07-31T09:43:24;4.30;;;2.90;;
16824;SDS011;8529;48.108;-1.706;2023-07-31T09:45:54;5.90;;;3.55;;
16824;SDS011;8529;48.108;-1.706;2023-07-31T09:48:23;4.53;;;2.47;;
16824;SDS011;8529;48.108;-1.706;2023-07-31T09:50:52;6.80;;;3.38;;
16824;SDS011;8529;48.108;-1.706;2023-07-31T09:53:20;6.85;;;3.17;;
16824;SDS011;8529;48.108;-1.706;2023-07-31T09:55:56;5.60;;;3.28;;
16824;SDS011;8529;48.108;-1.706;2023-07-31T09:58:25;5.25;;;2.72;;
16824;SDS011;8529;48.108;-1.706;2023-07-31T10:00:56;6.95;;;3.60;;
16824;SDS011;8529;48.108;-1.706;2023-07-31T10:03:25;7.68;;;3.80;;
16824;SDS011;8529;48.108;-1.706;2023-07-31T10:05:53;8.75;;;3.53;;
16824;SDS011;8529;48.108;-1.706;2023-07-31T10:08:23;11.02;;;3.70;;
16824;SDS011;8529;48.108;-1.706;2023-07-31T10:10:57;6.80;;;3.85;;
16824;SDS011;8529;48.108;-1.706;2023-07-31T10:13:25;10.32;;;4.28;;
16824;SDS011;8529;48.108;-1.706;2023-07-31T10:15:54;7.97;;;3.95;;
16824;SDS011;8529;48.108;-1.706;2023-07-31T10:18:24;6.93;;;3.85;;
16824;SDS011;8529;48.108;-1.706;2023-07-31T10:20:52;8.10;;;4.18;;
16824;SDS011;8529;48.108;-1.706;2023-07-31T10:23:21;8.20;;;4.07;;
16824;SDS011;8529;48.108;-1.706;2023-07-31T10:25:50;9.02;;;4.13;;
16824;SDS011;8529;48.108;-1.706;2023-07-31T10:28:21;6.43;;;3.30;;
16824;SDS011;8529;48.108;-1.706;2023-07-31T10:30:50;7.13;;;4.07;;
16824;SDS011;8529;48.108;-1.706;2023-07-31T10:33:18;8.40;;;4.32;;
16824;SDS011;8529;48.108;-1.706;2023-07-31T10:35:46;8.00;;;4.38;;
16824;SDS011;8529;48.108;-1.706;2023-07-31T10:38:13;8.23;;;4.30;;
16824;SDS011;8529;48.108;-1.706;2023-07-31T10:40:41;12.20;;;5.20;;
16824;SDS011;8529;48.108;-1.706;2023-07-31T10:43:08;7.28;;;3.95;;
16824;SDS011;8529;48.108;-1.706;2023-07-31T10:45:38;8.88;;;4.00;;
16824;SDS011;8529;48.108;-1.706;2023-07-31T10:48:06;9.73;;;5.28;;
16824;SDS011;8529;48.108;-1.706;2023-07-31T10:50:38;10.57;;;4.53;;
16824;SDS011;8529;48.108;-1.706;2023-07-31T10:53:22;9.68;;;5.05;;
16824;SDS011;8529;48.108;-1.706;2023-07-31T10:55:49;7.97;;;4.28;;
16824;SDS011;8529;48.108;-1.706;2023-07-31T10:58:18;10.02;;;4.75;;
16824;SDS011;8529;48.108;-1.706;2023-07-31T11:00:46;12.27;;;4.68;;
16824;SDS011;8529;48.108;-1.706;2023-07-31T11:03:14;8.40;;;3.60;;
16824;SDS011;8529;48.108;-1.706;2023-07-31T11:05:42;7.78;;;4.30;;
16824;SDS011;8529;48.108;-1.706;2023-07-31T11:08:11;5.90;;;3.60;;
16824;SDS011;8529;48.108;-1.706;2023-07-31T11:10:39;6.57;;;3.25;;
16824;SDS011;8529;48.108;-1.706;2023-07-31T11:13:06;7.68;;;4.13;;
16824;SDS011;8529;48.108;-1.706;2023-07-31T11:15:33;8.93;;;4.28;;
16824;SDS011;8529;48.108;-1.706;2023-07-31T11:18:02;9.23;;;3.60;;
16824;SDS011;8529;48.108;-1.706;2023-07-31T11:20:30;7.07;;;3.90;;
16824;SDS011;8529;48.108;-1.706;2023-07-31T11:22:59;9.65;;;4.45;;
16824;SDS011;8529;48.108;-1.706;2023-07-31T11:25:28;8.77;;;3.92;;
16824;SDS011;8529;48.108;-1.706;2023-07-31T11:27:57;6.28;;;3.30;;
16824;SDS011;8529;48.108;-1.706;2023-07-31T11:30:28;5.10;;;3.80;;
16824;SDS011;8529;48.108;-1.706;2023-07-31T11:32:55;8.63;;;4.60;;
16824;SDS011;8529;48.108;-1.706;2023-07-31T11:35:24;6.68;;;4.45;;
16824;SDS011;8529;48.108;-1.706;2023-07-31T11:37:51;6.15;;;3.63;;
16824;SDS011;8529;48.108;-1.706;2023-07-31T11:40:18;8.32;;;3.67;;
16824;SDS011;8529;48.108;-1.706;2023-07-31T11:42:45;6.50;;;3.67;;
16824;SDS011;8529;48.108;-1.706;2023-07-31T11:45:12;8.82;;;3.65;;
16824;SDS011;8529;48.108;-1.706;2023-07-31T11:47:39;7.43;;;3.65;;
16824;SDS011;8529;48.108;-1.706;2023-07-31T11:50:10;5.18;;;3.35;;
16824;SDS011;8529;48.108;-1.706;2023-07-31T11:52:40;6.63;;;3.72;;
16824;SDS011;8529;48.108;-1.706;2023-07-31T11:55:09;4.68;;;3.33;;
16824;SDS011;8529;48.108;-1.706;2023-07-31T11:57:37;7.82;;;3.85;;
16824;SDS011;8529;48.108;-1.706;2023-07-31T12:00:06;5.70;;;3.70;;
16824;SDS011;8529;48.108;-1.706;2023-07-31T12:02:36;8.30;;;4.07;;
16824;SDS011;8529;48.108;-1.706;2023-07-31T12:05:04;4.68;;;3.25;;
16824;SDS011;8529;48.108;-1.706;2023-07-31T12:07:46;7.25;;;3.75;;
16824;SDS011;8529;48.108;-1.706;2023-07-31T12:10:25;7.15;;;3.80;;
16824;SDS011;8529;48.108;-1.706;2023-07-31T12:12:56;7.10;;;3.70;;
16824;SDS011;8529;48.108;-1.706;2023-07-31T12:15:28;9.05;;;3.95;;
16824;SDS011;8529;48.108;-1.706;2023-07-31T12:17:59;5.38;;;3.45;;
16824;SDS011;8529;48.108;-1.706;2023-07-31T12:20:26;8.15;;;4.22;;
16824;SDS011;8529;48.108;-1.706;2023-07-31T12:22:57;6.82;;;3.67;;
16824;SDS011;8529;48.108;-1.706;2023-07-31T12:25:28;7.75;;;3.78;;
16824;SDS011;8529;48.108;-1.706;2023-07-31T12:27:55;6.85;;;3.42;;
16824;SDS011;8529;48.108;-1.706;2023-07-31T12:30:26;4.35;;;2.88;;
16824;SDS011;8529;48.108;-1.706;2023-07-31T12:32:53;6.18;;;3.40;;
16824;SDS011;8529;48.108;-1.706;2023-07-31T12:35:21;4.88;;;3.08;;
16824;SDS011;8529;48.108;-1.706;2023-07-31T12:37:48;3.17;;;2.30;;
16824;SDS011;8529;48.108;-1.706;2023-07-31T12:40:16;3.17;;;2.70;;
16824;SDS011;8529;48.108;-1.706;2023-07-31T12:42:44;4.53;;;2.88;;
16824;SDS011;8529;48.108;-1.706;2023-07-31T12:45:11;3.63;;;2.42;;
16824;SDS011;8529;48.108;-1.706;2023-07-31T12:47:37;3.72;;;2.45;;
16824;SDS011;8529;48.108;-1.706;2023-07-31T12:50:05;2.78;;;1.83;;
16824;SDS011;8529;48.108;-1.706;2023-07-31T12:52:33;4.05;;;2.17;;
16824;SDS011;8529;48.108;-1.706;2023-07-31T12:55:00;3.80;;;2.15;;
16824;SDS011;8529;48.108;-1.706;2023-07-31T12:57:28;2.63;;;1.67;;
16824;SDS011;8529;48.108;-1.706;2023-07-31T12:59:56;2.75;;;2.00;;
16824;SDS011;8529;48.108;-1.706;2023-07-31T13:02:23;2.65;;;1.85;;
16824;SDS011;8529;48.108;-1.706;2023-07-31T13:04:49;4.75;;;2.33;;
16824;SDS011;8529;48.108;-1.706;2023-07-31T13:07:17;3.17;;;1.85;;
16824;SDS011;8529;48.108;-1.706;2023-07-31T13:09:43;2.55;;;1.42;;
16824;SDS011;8529;48.108;-1.706;2023-07-31T13:12:10;3.65;;;1.75;;
16824;SDS011;8529;48.108;-1.706;2023-07-31T13:14:39;2.95;;;1.48;;
16824;SDS011;8529;48.108;-1.706;2023-07-31T13:17:05;2.65;;;1.33;;
16824;SDS011;8529;48.108;-1.706;2023-07-31T13:19:32;4.72;;;1.80;;
16824;SDS011;8529;48.108;-1.706;2023-07-31T13:21:59;5.15;;;1.90;;
16824;SDS011;8529;48.108;-1.706;2023-07-31T13:24:26;3.30;;;1.45;;
16824;SDS011;8529;48.108;-1.706;2023-07-31T13:26:55;4.72;;;1.65;;
16824;SDS011;8529;48.108;-1.706;2023-07-31T13:29:22;2.30;;;1.67;;
16824;SDS011;8529;48.108;-1.706;2023-07-31T13:31:51;2.28;;;1.85;;
16824;SDS011;8529;48.108;-1.706;2023-07-31T13:34:18;3.95;;;1.42;;
16824;SDS011;8529;48.108;-1.706;2023-07-31T13:36:45;3.30;;;1.70;;
16824;SDS011;8529;48.108;-1.706;2023-07-31T13:39:12;1.80;;;1.25;;
16824;SDS011;8529;48.108;-1.706;2023-07-31T13:41:39;2.35;;;1.75;;
16824;SDS011;8529;48.108;-1.706;2023-07-31T13:44:06;2.80;;;1.40;;
16824;SDS011;8529;48.108;-1.706;2023-07-31T13:46:33;1.70;;;1.42;;
16824;SDS011;8529;48.108;-1.706;2023-07-31T13:49:01;2.83;;;1.30;;
16824;SDS011;8529;48.108;-1.706;2023-07-31T13:51:28;2.22;;;1.52;;
16824;SDS011;8529;48.108;-1.706;2023-07-31T13:53:55;4.15;;;1.83;;
16824;SDS011;8529;48.108;-1.706;2023-07-31T13:56:22;3.03;;;2.08;;
16824;SDS011;8529;48.108;-1.706;2023-07-31T13:58:49;3.17;;;1.73;;
16824;SDS011;8529;48.108;-1.706;2023-07-31T14:01:16;2.40;;;1.30;;
16824;SDS011;8529;48.108;-1.706;2023-07-31T14:03:43;4.10;;;1.70;;
16824;SDS011;8529;48.108;-1.706;2023-07-31T14:06:11;2.13;;;1.30;;
16824;SDS011;8529;48.108;-1.706;2023-07-31T14:08:38;3.67;;;1.50;;
16824;SDS011;8529;48.108;-1.706;2023-07-31T14:11:05;1.90;;;1.42;;
16824;SDS011;8529;48.108;-1.706;2023-07-31T14:13:32;3.03;;;1.85;;
16824;SDS011;8529;48.108;-1.706;2023-07-31T14:15:59;3.30;;;1.40;;
16824;SDS011;8529;48.108;-1.706;2023-07-31T14:18:26;3.40;;;1.75;;
16824;SDS011;8529;48.108;-1.706;2023-07-31T14:20:53;1.98;;;1.42;;
16824;SDS011;8529;48.108;-1.706;2023-07-31T14:23:22;2.25;;;1.40;;
16824;SDS011;8529;48.108;-1.706;2023-07-31T14:25:49;4.93;;;1.80;;
16824;SDS011;8529;48.108;-1.706;2023-07-31T14:28:16;6.68;;;2.03;;
16824;SDS011;8529;48.108;-1.706;2023-07-31T14:30:43;2.63;;;1.60;;
16824;SDS011;8529;48.108;-1.706;2023-07-31T14:33:10;1.80;;;1.33;;
16824;SDS011;8529;48.108;-1.706;2023-07-31T14:35:37;6.28;;;1.75;;
16824;SDS011;8529;48.108;-1.706;2023-07-31T14:38:04;2.38;;;1.60;;
16824;SDS011;8529;48.108;-1.706;2023-07-31T14:40:33;2.67;;;1.55;;
16824;SDS011;8529;48.108;-1.706;2023-07-31T14:43:00;3.63;;;1.52;;
16824;SDS011;8529;48.108;-1.706;2023-07-31T14:45:27;5.20;;;1.45;;
16824;SDS011;8529;48.108;-1.706;2023-07-31T14:47:54;2.28;;;1.27;;